sensor_id;sensor_type;location;lat;lon;timestamp;P1;durP1;ratioP1;P2;durP2;ratioP2
58260;SDS011;44058;52.898;6.502;2022-08-05T00:01:51;4.78;;;1.65;;
58260;SDS011;44058;52.898;6.502;2022-08-05T00:04:16;4.95;;;2.00;;
58260;SDS011;44058;52.898;6.502;2022-08-05T00:06:42;4.72;;;1.90;;
58260;SDS011;44058;52.898;6.502;2022-08-05T00:09:08;3.22;;;2.08;;
58260;SDS011;44058;52.898;6.502;2022-08-05T00:11:34;3.05;;;1.58;;
58260;SDS011;44058;52.898;6.502;2022-08-05T00:14:00;2.80;;;1.77;;
58260;SDS011;44058;52.898;6.502;2022-08-05T00:16:26;4.65;;;1.80;;
58260;SDS011;44058;52.898;6.502;2022-08-05T00:18:52;6.75;;;2.30;;
58260;SDS011;44058;52.898;6.502;2022-08-05T00:21:17;2.80;;;1.85;;
58260;SDS011;44058;52.898;6.502;2022-08-05T00:23:44;4.38;;;2.28;;
58260;SDS011;44058;52.898;6.502;2022-08-05T00:26:11;6.88;;;2.17;;
58260;SDS011;44058;52.898;6.502;2022-08-05T00:28:37;3.65;;;2.05;;
58260;SDS011;44058;52.898;6.502;2022-08-05T00:31:03;4.30;;;2.20;;
58260;SDS011;44058;52.898;6.502;2022-08-05T00:33:30;5.22;;;1.92;;
58260;SDS011;44058;52.898;6.502;2022-08-05T00:35:59;4.07;;;2.47;;
58260;SDS011;44058;52.898;6.502;2022-08-05T00:38:25;5.47;;;2.10;;
58260;SDS011;44058;52.898;6.502;2022-08-05T00:40:52;4.18;;;1.50;;
58260;SDS011;44058;52.898;6.502;2022-08-05T00:43:20;4.35;;;2.25;;
58260;SDS011;44058;52.898;6.502;2022-08-05T00:45:46;3.20;;;1.67;;
58260;SDS011;44058;52.898;6.502;2022-08-05T00:48:14;4.75;;;1.83;;
58260;SDS011;44058;52.898;6.502;2022-08-05T00:53:08;3.70;;;1.98;;
58260;SDS011;44058;52.898;6.502;2022-08-05T00:55:34;4.80;;;2.08;;
58260;SDS011;44058;52.898;6.502;2022-08-05T00:58:00;3.92;;;1.80;;
58260;SDS011;44058;52.898;6.502;2022-08-05T01:00:27;4.35;;;2.20;;
58260;SDS011;44058;52.898;6.502;2022-08-05T01:02:54;4.60;;;1.90;;
58260;SDS011;44058;52.898;6.502;2022-08-05T01:05:20;6.03;;;2.05;;
58260;SDS011;44058;52.898;6.502;2022-08-05T01:07:47;3.88;;;1.85;;
58260;SDS011;44058;52.898;6.502;2022-08-05T01:10:12;3.15;;;1.90;;
58260;SDS011;44058;52.898;6.502;2022-08-05T01:12:44;6.20;;;1.80;;
58260;SDS011;44058;52.898;6.502;2022-08-05T01:15:17;6.05;;;1.88;;
58260;SDS011;44058;52.898;6.502;2022-08-05T01:17:47;4.38;;;2.05;;
58260;SDS011;44058;52.898;6.502;2022-08-05T01:20:28;4.38;;;2.00;;
58260;SDS011;44058;52.898;6.502;2022-08-05T01:23:10;3.45;;;2.13;;
58260;SDS011;44058;52.898;6.502;2022-08-05T01:28:52;4.57;;;1.98;;
58260;SDS011;44058;52.898;6.502;2022-08-05T01:34:22;6.60;;;2.30;;
58260;SDS011;44058;52.898;6.502;2022-08-05T01:36:57;5.13;;;2.63;;
58260;SDS011;44058;52.898;6.502;2022-08-05T01:39:28;4.55;;;2.10;;
58260;SDS011;44058;52.898;6.502;2022-08-05T01:41:56;4.33;;;2.50;;
58260;SDS011;44058;52.898;6.502;2022-08-05T01:44:23;5.85;;;2.15;;
58260;SDS011;44058;52.898;6.502;2022-08-05T01:46:50;4.90;;;2.53;;
58260;SDS011;44058;52.898;6.502;2022-08-05T01:49:20;4.75;;;2.13;;
58260;SDS011;44058;52.898;6.502;2022-08-05T01:51:47;4.35;;;1.88;;
58260;SDS011;44058;52.898;6.502;2022-08-05T01:54:14;5.97;;;2.45;;
58260;SDS011;44058;52.898;6.502;2022-08-05T01:56:43;4.65;;;2.17;;
58260;SDS011;44058;52.898;6.502;2022-08-05T01:59:11;3.70;;;2.00;;
58260;SDS011;44058;52.898;6.502;2022-08-05T02:01:40;3.67;;;2.03;;
58260;SDS011;44058;52.898;6.502;2022-08-05T02:04:08;5.22;;;1.90;;
58260;SDS011;44058;52.898;6.502;2022-08-05T02:06:36;9.52;;;2.42;;
58260;SDS011;44058;52.898;6.502;2022-08-05T02:09:03;4.63;;;2.17;;
58260;SDS011;44058;52.898;6.502;2022-08-05T02:11:31;2.63;;;2.00;;
58260;SDS011;44058;52.898;6.502;2022-08-05T02:17:15;4.25;;;2.25;;
58260;SDS011;44058;52.898;6.502;2022-08-05T02:19:48;4.53;;;2.15;;
58260;SDS011;44058;52.898;6.502;2022-08-05T02:24:55;4.47;;;2.20;;
58260;SDS011;44058;52.898;6.502;2022-08-05T02:27:26;9.30;;;2.55;;
58260;SDS011;44058;52.898;6.502;2022-08-05T02:29:54;3.88;;;2.20;;
58260;SDS011;44058;52.898;6.502;2022-08-05T02:32:21;3.70;;;2.08;;
58260;SDS011;44058;52.898;6.502;2022-08-05T02:34:48;3.50;;;2.20;;
58260;SDS011;44058;52.898;6.502;2022-08-05T02:37:15;5.97;;;2.33;;
58260;SDS011;44058;52.898;6.502;2022-08-05T02:39:42;4.85;;;2.20;;
58260;SDS011;44058;52.898;6.502;2022-08-05T02:42:10;4.50;;;2.50;;
58260;SDS011;44058;52.898;6.502;2022-08-05T02:44:36;3.20;;;2.10;;
58260;SDS011;44058;52.898;6.502;2022-08-05T02:47:04;2.60;;;2.22;;
58260;SDS011;44058;52.898;6.502;2022-08-05T02:49:33;3.92;;;2.20;;
58260;SDS011;44058;52.898;6.502;2022-08-05T02:52:01;4.35;;;2.30;;
58260;SDS011;44058;52.898;6.502;2022-08-05T02:54:27;5.22;;;2.70;;
58260;SDS011;44058;52.898;6.502;2022-08-05T02:56:54;3.45;;;2.55;;
58260;SDS011;44058;52.898;6.502;2022-08-05T02:59:21;4.78;;;2.60;;
58260;SDS011;44058;52.898;6.502;2022-08-05T03:01:48;7.75;;;2.95;;
58260;SDS011;44058;52.898;6.502;2022-08-05T03:04:16;7.07;;;2.80;;
58260;SDS011;44058;52.898;6.502;2022-08-05T03:06:44;2.95;;;2.67;;
58260;SDS011;44058;52.898;6.502;2022-08-05T03:09:11;4.38;;;3.10;;
58260;SDS011;44058;52.898;6.502;2022-08-05T03:11:40;4.47;;;2.88;;
58260;SDS011;44058;52.898;6.502;2022-08-05T03:14:07;6.90;;;3.30;;
58260;SDS011;44058;52.898;6.502;2022-08-05T03:16:32;5.25;;;2.92;;
58260;SDS011;44058;52.898;6.502;2022-08-05T03:19:01;4.57;;;3.10;;
58260;SDS011;44058;52.898;6.502;2022-08-05T03:21:28;4.57;;;2.83;;
58260;SDS011;44058;52.898;6.502;2022-08-05T03:23:54;3.95;;;3.10;;
58260;SDS011;44058;52.898;6.502;2022-08-05T03:26:21;5.10;;;3.10;;
58260;SDS011;44058;52.898;6.502;2022-08-05T03:28:47;5.15;;;3.30;;
58260;SDS011;44058;52.898;6.502;2022-08-05T03:31:13;5.22;;;3.00;;
58260;SDS011;44058;52.898;6.502;2022-08-05T03:33:39;5.50;;;3.10;;
58260;SDS011;44058;52.898;6.502;2022-08-05T03:36:05;5.13;;;3.35;;
58260;SDS011;44058;52.898;6.502;2022-08-05T03:38:31;4.72;;;3.75;;
58260;SDS011;44058;52.898;6.502;2022-08-05T03:40:57;5.57;;;3.58;;
58260;SDS011;44058;52.898;6.502;2022-08-05T03:43:23;5.35;;;3.45;;
58260;SDS011;44058;52.898;6.502;2022-08-05T03:45:52;7.95;;;3.60;;
58260;SDS011;44058;52.898;6.502;2022-08-05T03:48:19;4.78;;;3.40;;
58260;SDS011;44058;52.898;6.502;2022-08-05T03:50:52;6.53;;;3.42;;
58260;SDS011;44058;52.898;6.502;2022-08-05T03:53:31;6.20;;;3.55;;
58260;SDS011;44058;52.898;6.502;2022-08-05T03:56:11;5.25;;;3.10;;
58260;SDS011;44058;52.898;6.502;2022-08-05T03:58:45;5.53;;;3.90;;
58260;SDS011;44058;52.898;6.502;2022-08-05T04:01:12;5.95;;;3.60;;
58260;SDS011;44058;52.898;6.502;2022-08-05T04:03:40;7.77;;;3.63;;
58260;SDS011;44058;52.898;6.502;2022-08-05T04:06:08;4.35;;;3.67;;
58260;SDS011;44058;52.898;6.502;2022-08-05T04:08:34;6.50;;;3.80;;
58260;SDS011;44058;52.898;6.502;2022-08-05T04:11:01;5.07;;;3.70;;
58260;SDS011;44058;52.898;6.502;2022-08-05T04:13:28;7.85;;;4.25;;
58260;SDS011;44058;52.898;6.502;2022-08-05T04:15:55;5.97;;;3.60;;
58260;SDS011;44058;52.898;6.502;2022-08-05T04:18:24;8.27;;;4.60;;
58260;SDS011;44058;52.898;6.502;2022-08-05T04:20:54;6.50;;;3.83;;
58260;SDS011;44058;52.898;6.502;2022-08-05T04:23:21;4.78;;;3.78;;
58260;SDS011;44058;52.898;6.502;2022-08-05T04:28:15;6.45;;;4.13;;
58260;SDS011;44058;52.898;6.502;2022-08-05T04:30:41;8.07;;;3.97;;
58260;SDS011;44058;52.898;6.502;2022-08-05T04:33:06;6.38;;;4.20;;
58260;SDS011;44058;52.898;6.502;2022-08-05T04:35:32;7.05;;;4.18;;
58260;SDS011;44058;52.898;6.502;2022-08-05T04:37:58;6.15;;;4.47;;
58260;SDS011;44058;52.898;6.502;2022-08-05T04:40:23;5.10;;;4.13;;
58260;SDS011;44058;52.898;6.502;2022-08-05T04:42:49;8.43;;;4.43;;
58260;SDS011;44058;52.898;6.502;2022-08-05T04:45:15;5.03;;;4.53;;
58260;SDS011;44058;52.898;6.502;2022-08-05T04:47:40;5.53;;;4.30;;
58260;SDS011;44058;52.898;6.502;2022-08-05T04:50:07;5.20;;;4.03;;
58260;SDS011;44058;52.898;6.502;2022-08-05T04:52:33;5.53;;;3.90;;
58260;SDS011;44058;52.898;6.502;2022-08-05T04:54:58;7.47;;;4.28;;
58260;SDS011;44058;52.898;6.502;2022-08-05T04:57:24;5.15;;;4.25;;
58260;SDS011;44058;52.898;6.502;2022-08-05T04:59:51;7.72;;;4.15;;
58260;SDS011;44058;52.898;6.502;2022-08-05T05:02:17;5.68;;;3.90;;
58260;SDS011;44058;52.898;6.502;2022-08-05T05:04:42;6.28;;;4.32;;
58260;SDS011;44058;52.898;6.502;2022-08-05T05:07:08;4.80;;;3.90;;
58260;SDS011;44058;52.898;6.502;2022-08-05T05:09:34;4.40;;;3.92;;
58260;SDS011;44058;52.898;6.502;2022-08-05T05:11:59;8.10;;;3.97;;
58260;SDS011;44058;52.898;6.502;2022-08-05T05:14:25;7.55;;;4.45;;
58260;SDS011;44058;52.898;6.502;2022-08-05T05:16:51;8.48;;;4.38;;
58260;SDS011;44058;52.898;6.502;2022-08-05T05:19:17;5.18;;;3.92;;
58260;SDS011;44058;52.898;6.502;2022-08-05T05:21:43;5.55;;;4.30;;
58260;SDS011;44058;52.898;6.502;2022-08-05T05:24:08;6.72;;;4.00;;
58260;SDS011;44058;52.898;6.502;2022-08-05T05:26:34;3.47;;;2.97;;
58260;SDS011;44058;52.898;6.502;2022-08-05T05:29:00;5.43;;;3.75;;
58260;SDS011;44058;52.898;6.502;2022-08-05T05:31:26;4.63;;;3.60;;
58260;SDS011;44058;52.898;6.502;2022-08-05T05:33:51;6.47;;;4.05;;
58260;SDS011;44058;52.898;6.502;2022-08-05T05:36:17;4.72;;;3.53;;
58260;SDS011;44058;52.898;6.502;2022-08-05T05:38:43;4.68;;;4.10;;
58260;SDS011;44058;52.898;6.502;2022-08-05T05:41:08;6.47;;;4.03;;
58260;SDS011;44058;52.898;6.502;2022-08-05T05:43:34;5.82;;;3.95;;
58260;SDS011;44058;52.898;6.502;2022-08-05T05:46:00;5.28;;;3.70;;
58260;SDS011;44058;52.898;6.502;2022-08-05T05:48:25;6.25;;;3.97;;
58260;SDS011;44058;52.898;6.502;2022-08-05T05:50:51;5.45;;;3.45;;
58260;SDS011;44058;52.898;6.502;2022-08-05T05:53:17;4.93;;;3.75;;
58260;SDS011;44058;52.898;6.502;2022-08-05T05:55:42;3.97;;;3.25;;
58260;SDS011;44058;52.898;6.502;2022-08-05T05:58:09;5.28;;;3.50;;
58260;SDS011;44058;52.898;6.502;2022-08-05T06:00:36;4.65;;;3.53;;
58260;SDS011;44058;52.898;6.502;2022-08-05T06:03:02;4.20;;;3.50;;
58260;SDS011;44058;52.898;6.502;2022-08-05T06:05:28;4.22;;;3.83;;
58260;SDS011;44058;52.898;6.502;2022-08-05T06:07:53;4.35;;;3.78;;
58260;SDS011;44058;52.898;6.502;2022-08-05T06:10:21;5.00;;;3.75;;
58260;SDS011;44058;52.898;6.502;2022-08-05T06:12:47;6.40;;;3.72;;
58260;SDS011;44058;52.898;6.502;2022-08-05T06:15:12;4.93;;;3.42;;
58260;SDS011;44058;52.898;6.502;2022-08-05T06:17:38;8.05;;;3.65;;
58260;SDS011;44058;52.898;6.502;2022-08-05T06:20:04;4.50;;;3.10;;
58260;SDS011;44058;52.898;6.502;2022-08-05T06:22:31;3.25;;;2.55;;
58260;SDS011;44058;52.898;6.502;2022-08-05T06:24:58;4.78;;;2.85;;
58260;SDS011;44058;52.898;6.502;2022-08-05T06:27:25;3.90;;;2.55;;
58260;SDS011;44058;52.898;6.502;2022-08-05T06:29:50;3.78;;;2.90;;
58260;SDS011;44058;52.898;6.502;2022-08-05T06:32:16;2.80;;;2.30;;
58260;SDS011;44058;52.898;6.502;2022-08-05T06:34:42;4.35;;;2.80;;
58260;SDS011;44058;52.898;6.502;2022-08-05T06:37:08;4.70;;;2.67;;
58260;SDS011;44058;52.898;6.502;2022-08-05T06:39:34;3.58;;;2.70;;
58260;SDS011;44058;52.898;6.502;2022-08-05T06:42:00;4.03;;;2.72;;
58260;SDS011;44058;52.898;6.502;2022-08-05T06:44:27;3.67;;;2.42;;
58260;SDS011;44058;52.898;6.502;2022-08-05T06:46:54;3.70;;;2.05;;
58260;SDS011;44058;52.898;6.502;2022-08-05T06:49:20;4.65;;;2.03;;
58260;SDS011;44058;52.898;6.502;2022-08-05T06:51:46;3.10;;;1.73;;
58260;SDS011;44058;52.898;6.502;2022-08-05T06:54:12;3.00;;;1.90;;
58260;SDS011;44058;52.898;6.502;2022-08-05T06:56:38;5.00;;;1.90;;
58260;SDS011;44058;52.898;6.502;2022-08-05T06:59:04;2.33;;;1.48;;
58260;SDS011;44058;52.898;6.502;2022-08-05T07:01:31;3.30;;;1.63;;
58260;SDS011;44058;52.898;6.502;2022-08-05T07:03:57;4.95;;;1.70;;
58260;SDS011;44058;52.898;6.502;2022-08-05T07:06:23;3.88;;;1.40;;
58260;SDS011;44058;52.898;6.502;2022-08-05T07:08:48;2.63;;;1.60;;
58260;SDS011;44058;52.898;6.502;2022-08-05T07:11:15;2.95;;;1.30;;
58260;SDS011;44058;52.898;6.502;2022-08-05T07:13:41;2.70;;;1.80;;
58260;SDS011;44058;52.898;6.502;2022-08-05T07:16:26;3.10;;;1.50;;
58260;SDS011;44058;52.898;6.502;2022-08-05T07:19:11;3.08;;;1.50;;
58260;SDS011;44058;52.898;6.502;2022-08-05T07:21:37;3.72;;;1.45;;
58260;SDS011;44058;52.898;6.502;2022-08-05T07:24:03;1.77;;;1.48;;
58260;SDS011;44058;52.898;6.502;2022-08-05T07:26:29;3.58;;;1.10;;
58260;SDS011;44058;52.898;6.502;2022-08-05T07:28:55;1.85;;;1.27;;
58260;SDS011;44058;52.898;6.502;2022-08-05T07:31:20;1.48;;;1.30;;
58260;SDS011;44058;52.898;6.502;2022-08-05T07:33:46;1.83;;;1.00;;
58260;SDS011;44058;52.898;6.502;2022-08-05T07:36:12;2.72;;;1.40;;
58260;SDS011;44058;52.898;6.502;2022-08-05T07:38:39;1.95;;;1.13;;
58260;SDS011;44058;52.898;6.502;2022-08-05T07:41:06;2.47;;;1.10;;
58260;SDS011;44058;52.898;6.502;2022-08-05T07:43:33;1.45;;;1.02;;
58260;SDS011;44058;52.898;6.502;2022-08-05T07:45:59;1.38;;;1.00;;
58260;SDS011;44058;52.898;6.502;2022-08-05T07:48:25;2.03;;;1.17;;
58260;SDS011;44058;52.898;6.502;2022-08-05T07:50:50;3.28;;;1.42;;
58260;SDS011;44058;52.898;6.502;2022-08-05T07:53:16;2.63;;;1.23;;
58260;SDS011;44058;52.898;6.502;2022-08-05T07:55:42;2.83;;;1.52;;
58260;SDS011;44058;52.898;6.502;2022-08-05T07:58:07;1.35;;;1.23;;
58260;SDS011;44058;52.898;6.502;2022-08-05T08:00:33;3.58;;;1.25;;
58260;SDS011;44058;52.898;6.502;2022-08-05T08:03:00;2.28;;;1.10;;
58260;SDS011;44058;52.898;6.502;2022-08-05T08:05:26;2.20;;;1.35;;
58260;SDS011;44058;52.898;6.502;2022-08-05T08:07:52;2.50;;;1.30;;
58260;SDS011;44058;52.898;6.502;2022-08-05T08:10:20;2.83;;;1.03;;
58260;SDS011;44058;52.898;6.502;2022-08-05T08:12:46;1.63;;;1.17;;
58260;SDS011;44058;52.898;6.502;2022-08-05T08:15:13;1.27;;;0.95;;
58260;SDS011;44058;52.898;6.502;2022-08-05T08:17:39;3.05;;;1.52;;
58260;SDS011;44058;52.898;6.502;2022-08-05T08:20:04;3.70;;;1.23;;
58260;SDS011;44058;52.898;6.502;2022-08-05T08:22:31;1.77;;;0.90;;
58260;SDS011;44058;52.898;6.502;2022-08-05T08:24:57;1.33;;;1.00;;
58260;SDS011;44058;52.898;6.502;2022-08-05T08:27:23;3.30;;;0.88;;
58260;SDS011;44058;52.898;6.502;2022-08-05T08:29:48;1.98;;;0.70;;
58260;SDS011;44058;52.898;6.502;2022-08-05T08:32:14;2.85;;;1.00;;
58260;SDS011;44058;52.898;6.502;2022-08-05T08:34:40;2.50;;;1.00;;
58260;SDS011;44058;52.898;6.502;2022-08-05T08:37:06;2.17;;;0.88;;
58260;SDS011;44058;52.898;6.502;2022-08-05T08:39:32;1.83;;;0.80;;
58260;SDS011;44058;52.898;6.502;2022-08-05T08:41:58;2.05;;;0.77;;
58260;SDS011;44058;52.898;6.502;2022-08-05T08:44:28;0.90;;;0.60;;
58260;SDS011;44058;52.898;6.502;2022-08-05T08:46:54;2.92;;;1.10;;
58260;SDS011;44058;52.898;6.502;2022-08-05T08:49:21;2.45;;;0.95;;
58260;SDS011;44058;52.898;6.502;2022-08-05T08:51:52;2.60;;;0.90;;
58260;SDS011;44058;52.898;6.502;2022-08-05T08:54:22;1.50;;;0.60;;
58260;SDS011;44058;52.898;6.502;2022-08-05T08:56:49;1.83;;;0.90;;
58260;SDS011;44058;52.898;6.502;2022-08-05T08:59:16;1.67;;;0.70;;
58260;SDS011;44058;52.898;6.502;2022-08-05T09:01:43;2.50;;;0.80;;
58260;SDS011;44058;52.898;6.502;2022-08-05T09:04:11;1.42;;;0.82;;
58260;SDS011;44058;52.898;6.502;2022-08-05T09:06:37;1.08;;;0.70;;
58260;SDS011;44058;52.898;6.502;2022-08-05T09:09:03;3.20;;;0.75;;
58260;SDS011;44058;52.898;6.502;2022-08-05T09:11:31;2.22;;;0.43;;
58260;SDS011;44058;52.898;6.502;2022-08-05T09:13:57;2.10;;;0.80;;
58260;SDS011;44058;52.898;6.502;2022-08-05T09:16:24;2.75;;;0.73;;
58260;SDS011;44058;52.898;6.502;2022-08-05T09:18:51;3.17;;;0.60;;
58260;SDS011;44058;52.898;6.502;2022-08-05T09:21:17;2.92;;;0.77;;
58260;SDS011;44058;52.898;6.502;2022-08-05T09:23:43;2.60;;;0.63;;
58260;SDS011;44058;52.898;6.502;2022-08-05T09:26:10;1.63;;;0.60;;
58260;SDS011;44058;52.898;6.502;2022-08-05T09:28:41;1.35;;;0.70;;
58260;SDS011;44058;52.898;6.502;2022-08-05T09:31:11;1.95;;;0.80;;
58260;SDS011;44058;52.898;6.502;2022-08-05T09:33:47;2.63;;;0.63;;
58260;SDS011;44058;52.898;6.502;2022-08-05T09:36:22;1.85;;;0.52;;
58260;SDS011;44058;52.898;6.502;2022-08-05T09:38:59;1.67;;;0.50;;
58260;SDS011;44058;52.898;6.502;2022-08-05T09:41:28;3.25;;;0.60;;
58260;SDS011;44058;52.898;6.502;2022-08-05T09:43:53;1.48;;;0.75;;
58260;SDS011;44058;52.898;6.502;2022-08-05T09:46:29;1.27;;;0.60;;
58260;SDS011;44058;52.898;6.502;2022-08-05T09:48:57;0.60;;;0.40;;
58260;SDS011;44058;52.898;6.502;2022-08-05T09:51:38;1.05;;;0.60;;
58260;SDS011;44058;52.898;6.502;2022-08-05T09:54:06;1.33;;;0.50;;
58260;SDS011;44058;52.898;6.502;2022-08-05T09:56:33;1.55;;;0.88;;
58260;SDS011;44058;52.898;6.502;2022-08-05T10:01:35;2.05;;;0.70;;
58260;SDS011;44058;52.898;6.502;2022-08-05T10:04:07;2.35;;;0.52;;
58260;SDS011;44058;52.898;6.502;2022-08-05T10:06:38;3.15;;;0.80;;
58260;SDS011;44058;52.898;6.502;2022-08-05T10:09:17;2.45;;;0.60;;
58260;SDS011;44058;52.898;6.502;2022-08-05T10:11:45;1.80;;;0.52;;
58260;SDS011;44058;52.898;6.502;2022-08-05T10:16:48;1.80;;;0.52;;
58260;SDS011;44058;52.898;6.502;2022-08-05T10:19:14;1.15;;;0.50;;
58260;SDS011;44058;52.898;6.502;2022-08-05T10:21:40;1.17;;;0.40;;
58260;SDS011;44058;52.898;6.502;2022-08-05T10:24:06;1.05;;;0.65;;
58260;SDS011;44058;52.898;6.502;2022-08-05T10:26:37;3.65;;;0.90;;
58260;SDS011;44058;52.898;6.502;2022-08-05T10:29:05;2.45;;;0.50;;
58260;SDS011;44058;52.898;6.502;2022-08-05T10:31:32;2.37;;;0.53;;
58260;SDS011;44058;52.898;6.502;2022-08-05T10:33:58;1.20;;;0.50;;
58260;SDS011;44058;52.898;6.502;2022-08-05T10:36:24;1.30;;;0.52;;
58260;SDS011;44058;52.898;6.502;2022-08-05T10:38:51;0.82;;;0.50;;
58260;SDS011;44058;52.898;6.502;2022-08-05T10:41:31;1.13;;;0.30;;
58260;SDS011;44058;52.898;6.502;2022-08-05T10:44:02;1.77;;;0.50;;
58260;SDS011;44058;52.898;6.502;2022-08-05T10:46:45;1.05;;;0.28;;
58260;SDS011;44058;52.898;6.502;2022-08-05T10:49:14;0.20;;;0.20;;
58260;SDS011;44058;52.898;6.502;2022-08-05T10:51:46;1.05;;;0.30;;
58260;SDS011;44058;52.898;6.502;2022-08-05T10:54:22;0.60;;;0.35;;
58260;SDS011;44058;52.898;6.502;2022-08-05T10:56:50;2.05;;;0.20;;
58260;SDS011;44058;52.898;6.502;2022-08-05T10:59:37;1.55;;;0.47;;
58260;SDS011;44058;52.898;6.502;2022-08-05T11:02:10;0.98;;;0.20;;
58260;SDS011;44058;52.898;6.502;2022-08-05T11:04:42;1.30;;;0.30;;
58260;SDS011;44058;52.898;6.502;2022-08-05T11:07:13;0.43;;;0.30;;
58260;SDS011;44058;52.898;6.502;2022-08-05T11:15:05;0.95;;;0.28;;
58260;SDS011;44058;52.898;6.502;2022-08-05T11:17:33;0.30;;;0.27;;
58260;SDS011;44058;52.898;6.502;2022-08-05T11:20:03;1.48;;;0.32;;
58260;SDS011;44058;52.898;6.502;2022-08-05T11:22:43;1.67;;;0.35;;
58260;SDS011;44058;52.898;6.502;2022-08-05T11:25:32;2.15;;;0.50;;
58260;SDS011;44058;52.898;6.502;2022-08-05T11:33:34;0.82;;;0.30;;
58260;SDS011;44058;52.898;6.502;2022-08-05T11:41:21;3.05;;;0.30;;
58260;SDS011;44058;52.898;6.502;2022-08-05T11:43:55;3.67;;;0.45;;
58260;SDS011;44058;52.898;6.502;2022-08-05T11:46:29;1.27;;;0.40;;
58260;SDS011;44058;52.898;6.502;2022-08-05T11:48:58;0.40;;;0.25;;
58260;SDS011;44058;52.898;6.502;2022-08-05T11:51:26;3.45;;;0.40;;
58260;SDS011;44058;52.898;6.502;2022-08-05T11:53:53;2.03;;;0.30;;
58260;SDS011;44058;52.898;6.502;2022-08-05T11:56:19;0.98;;;0.30;;
58260;SDS011;44058;52.898;6.502;2022-08-05T11:58:46;3.15;;;0.63;;
58260;SDS011;44058;52.898;6.502;2022-08-05T12:01:15;0.30;;;0.20;;
58260;SDS011;44058;52.898;6.502;2022-08-05T12:03:49;1.17;;;0.57;;
58260;SDS011;44058;52.898;6.502;2022-08-05T12:06:20;1.05;;;0.40;;
58260;SDS011;44058;52.898;6.502;2022-08-05T12:08:48;1.42;;;0.35;;
58260;SDS011;44058;52.898;6.502;2022-08-05T12:11:16;1.30;;;0.40;;
58260;SDS011;44058;52.898;6.502;2022-08-05T12:14:03;1.58;;;0.40;;
58260;SDS011;44058;52.898;6.502;2022-08-05T12:16:37;0.38;;;0.30;;
58260;SDS011;44058;52.898;6.502;2022-08-05T12:19:04;2.38;;;0.73;;
58260;SDS011;44058;52.898;6.502;2022-08-05T12:21:33;2.47;;;0.60;;
58260;SDS011;44058;52.898;6.502;2022-08-05T12:24:10;5.38;;;0.73;;
58260;SDS011;44058;52.898;6.502;2022-08-05T12:29:07;2.20;;;0.40;;
58260;SDS011;44058;52.898;6.502;2022-08-05T12:31:36;0.85;;;0.30;;
58260;SDS011;44058;52.898;6.502;2022-08-05T12:34:03;2.80;;;0.30;;
58260;SDS011;44058;52.898;6.502;2022-08-05T12:36:31;3.97;;;0.77;;
58260;SDS011;44058;52.898;6.502;2022-08-05T12:38:57;3.35;;;0.50;;
58260;SDS011;44058;52.898;6.502;2022-08-05T12:41:28;1.92;;;0.52;;
58260;SDS011;44058;52.898;6.502;2022-08-05T12:43:56;0.88;;;0.30;;
58260;SDS011;44058;52.898;6.502;2022-08-05T12:46:27;1.95;;;0.50;;
58260;SDS011;44058;52.898;6.502;2022-08-05T12:49:01;1.25;;;0.40;;
58260;SDS011;44058;52.898;6.502;2022-08-05T12:51:30;1.58;;;0.40;;
58260;SDS011;44058;52.898;6.502;2022-08-05T12:54:02;1.75;;;0.40;;
58260;SDS011;44058;52.898;6.502;2022-08-05T12:56:29;1.58;;;0.40;;
58260;SDS011;44058;52.898;6.502;2022-08-05T13:01:41;1.17;;;0.40;;
58260;SDS011;44058;52.898;6.502;2022-08-05T13:04:08;0.47;;;0.40;;
58260;SDS011;44058;52.898;6.502;2022-08-05T13:06:36;2.47;;;0.52;;
58260;SDS011;44058;52.898;6.502;2022-08-05T13:09:10;1.13;;;0.50;;
58260;SDS011;44058;52.898;6.502;2022-08-05T13:11:38;1.75;;;0.47;;
58260;SDS011;44058;52.898;6.502;2022-08-05T13:14:18;1.85;;;0.38;;
58260;SDS011;44058;52.898;6.502;2022-08-05T13:16:55;2.53;;;0.45;;
58260;SDS011;44058;52.898;6.502;2022-08-05T13:19:23;1.25;;;0.32;;
58260;SDS011;44058;52.898;6.502;2022-08-05T13:21:50;0.95;;;0.30;;
58260;SDS011;44058;52.898;6.502;2022-08-05T13:24:21;0.85;;;0.30;;
58260;SDS011;44058;52.898;6.502;2022-08-05T13:26:48;1.65;;;0.40;;
58260;SDS011;44058;52.898;6.502;2022-08-05T13:29:15;1.67;;;0.40;;
58260;SDS011;44058;52.898;6.502;2022-08-05T13:31:41;1.23;;;0.43;;
58260;SDS011;44058;52.898;6.502;2022-08-05T13:34:08;0.55;;;0.35;;
58260;SDS011;44058;52.898;6.502;2022-08-05T13:36:34;1.35;;;0.40;;
58260;SDS011;44058;52.898;6.502;2022-08-05T13:39:01;0.45;;;0.25;;
58260;SDS011;44058;52.898;6.502;2022-08-05T13:41:28;2.00;;;0.53;;
58260;SDS011;44058;52.898;6.502;2022-08-05T13:43:54;0.60;;;0.30;;
58260;SDS011;44058;52.898;6.502;2022-08-05T13:46:22;0.80;;;0.40;;
58260;SDS011;44058;52.898;6.502;2022-08-05T13:48:49;5.07;;;0.50;;
58260;SDS011;44058;52.898;6.502;2022-08-05T13:51:15;1.52;;;0.40;;
58260;SDS011;44058;52.898;6.502;2022-08-05T13:53:49;1.42;;;0.30;;
58260;SDS011;44058;52.898;6.502;2022-08-05T13:56:17;5.35;;;0.65;;
58260;SDS011;44058;52.898;6.502;2022-08-05T13:58:43;0.43;;;0.30;;
58260;SDS011;44058;52.898;6.502;2022-08-05T14:01:08;1.55;;;0.47;;
58260;SDS011;44058;52.898;6.502;2022-08-05T14:03:34;3.33;;;0.50;;
58260;SDS011;44058;52.898;6.502;2022-08-05T14:06:00;1.45;;;0.30;;
58260;SDS011;44058;52.898;6.502;2022-08-05T14:08:25;2.65;;;0.50;;
58260;SDS011;44058;52.898;6.502;2022-08-05T14:10:54;2.50;;;0.50;;
58260;SDS011;44058;52.898;6.502;2022-08-05T14:13:20;1.95;;;0.40;;
58260;SDS011;44058;52.898;6.502;2022-08-05T14:15:45;1.95;;;0.45;;
58260;SDS011;44058;52.898;6.502;2022-08-05T14:18:11;0.35;;;0.30;;
58260;SDS011;44058;52.898;6.502;2022-08-05T14:20:37;0.63;;;0.30;;
58260;SDS011;44058;52.898;6.502;2022-08-05T14:23:03;2.35;;;0.45;;
58260;SDS011;44058;52.898;6.502;2022-08-05T14:25:29;1.45;;;0.30;;
58260;SDS011;44058;52.898;6.502;2022-08-05T14:27:55;1.17;;;0.30;;
58260;SDS011;44058;52.898;6.502;2022-08-05T14:30:21;4.63;;;1.00;;
58260;SDS011;44058;52.898;6.502;2022-08-05T14:32:47;1.65;;;0.50;;
58260;SDS011;44058;52.898;6.502;2022-08-05T14:35:13;6.18;;;0.85;;
58260;SDS011;44058;52.898;6.502;2022-08-05T14:37:38;2.25;;;0.73;;
58260;SDS011;44058;52.898;6.502;2022-08-05T14:40:07;2.55;;;0.50;;
58260;SDS011;44058;52.898;6.502;2022-08-05T14:42:33;2.05;;;0.43;;
58260;SDS011;44058;52.898;6.502;2022-08-05T14:44:59;3.28;;;0.60;;
58260;SDS011;44058;52.898;6.502;2022-08-05T14:47:25;1.83;;;0.35;;
58260;SDS011;44058;52.898;6.502;2022-08-05T14:49:51;2.67;;;0.60;;
58260;SDS011;44058;52.898;6.502;2022-08-05T14:52:17;1.00;;;0.50;;
58260;SDS011;44058;52.898;6.502;2022-08-05T14:54:44;2.70;;;0.60;;
58260;SDS011;44058;52.898;6.502;2022-08-05T14:57:09;3.22;;;0.55;;
58260;SDS011;44058;52.898;6.502;2022-08-05T14:59:35;1.25;;;0.30;;
58260;SDS011;44058;52.898;6.502;2022-08-05T15:02:04;3.03;;;0.70;;
58260;SDS011;44058;52.898;6.502;2022-08-05T15:04:29;1.50;;;0.52;;
58260;SDS011;44058;52.898;6.502;2022-08-05T15:06:56;0.35;;;0.35;;
58260;SDS011;44058;52.898;6.502;2022-08-05T15:09:21;2.88;;;0.57;;
58260;SDS011;44058;52.898;6.502;2022-08-05T15:11:48;3.42;;;0.60;;
58260;SDS011;44058;52.898;6.502;2022-08-05T15:14:14;1.95;;;0.40;;
58260;SDS011;44058;52.898;6.502;2022-08-05T15:16:40;3.63;;;0.60;;
58260;SDS011;44058;52.898;6.502;2022-08-05T15:19:06;1.65;;;0.50;;
58260;SDS011;44058;52.898;6.502;2022-08-05T15:21:32;0.82;;;0.40;;
58260;SDS011;44058;52.898;6.502;2022-08-05T15:23:58;0.90;;;0.50;;
58260;SDS011;44058;52.898;6.502;2022-08-05T15:26:24;2.05;;;0.55;;
58260;SDS011;44058;52.898;6.502;2022-08-05T15:28:50;0.40;;;0.30;;
58260;SDS011;44058;52.898;6.502;2022-08-05T15:31:16;2.72;;;0.50;;
58260;SDS011;44058;52.898;6.502;2022-08-05T15:33:42;0.82;;;0.40;;
58260;SDS011;44058;52.898;6.502;2022-08-05T15:36:07;1.40;;;0.50;;